sensor_id;sensor_type;location;lat;lon;timestamp;P1;durP1;ratioP1;P2;durP2;ratioP2
15116;SDS011;7659;51.038;13.786;2023-10-19T00:00:34;14.50;;;5.82;;
15116;SDS011;7659;51.038;13.786;2023-10-19T00:03:01;16.85;;;6.38;;
15116;SDS011;7659;51.038;13.786;2023-10-19T00:05:32;10.07;;;5.45;;
15116;SDS011;7659;51.038;13.786;2023-10-19T00:08:01;11.55;;;5.93;;
15116;SDS011;7659;51.038;13.786;2023-10-19T00:10:31;11.82;;;5.30;;
15116;SDS011;7659;51.038;13.786;2023-10-19T00:13:00;10.27;;;5.35;;
15116;SDS011;7659;51.038;13.786;2023-10-19T00:15:31;8.35;;;5.47;;
15116;SDS011;7659;51.038;13.786;2023-10-19T00:17:58;9.55;;;5.80;;
15116;SDS011;7659;51.038;13.786;2023-10-19T00:20:31;11.20;;;5.10;;
15116;SDS011;7659;51.038;13.786;2023-10-19T00:23:12;10.02;;;5.53;;
15116;SDS011;7659;51.038;13.786;2023-10-19T00:25:39;11.00;;;5.35;;
15116;SDS011;7659;51.038;13.786;2023-10-19T00:28:07;9.50;;;5.28;;
15116;SDS011;7659;51.038;13.786;2023-10-19T00:30:32;8.40;;;5.25;;
15116;SDS011;7659;51.038;13.786;2023-10-19T00:33:03;9.63;;;5.53;;
15116;SDS011;7659;51.038;13.786;2023-10-19T00:35:30;12.10;;;5.20;;
15116;SDS011;7659;51.038;13.786;2023-10-19T00:38:07;10.75;;;5.40;;
15116;SDS011;7659;51.038;13.786;2023-10-19T00:40:51;10.93;;;5.15;;
15116;SDS011;7659;51.038;13.786;2023-10-19T00:43:41;9.50;;;5.53;;
15116;SDS011;7659;51.038;13.786;2023-10-19T00:46:10;9.48;;;5.00;;
15116;SDS011;7659;51.038;13.786;2023-10-19T00:48:49;12.15;;;5.68;;
15116;SDS011;7659;51.038;13.786;2023-10-19T00:51:18;14.18;;;5.53;;
15116;SDS011;7659;51.038;13.786;2023-10-19T00:54:12;12.77;;;5.15;;
15116;SDS011;7659;51.038;13.786;2023-10-19T00:56:47;13.40;;;5.82;;
15116;SDS011;7659;51.038;13.786;2023-10-19T00:59:18;13.88;;;5.70;;
15116;SDS011;7659;51.038;13.786;2023-10-19T01:01:52;14.73;;;5.93;;
15116;SDS011;7659;51.038;13.786;2023-10-19T01:04:29;9.48;;;5.15;;
15116;SDS011;7659;51.038;13.786;2023-10-19T01:06:58;12.43;;;6.22;;
15116;SDS011;7659;51.038;13.786;2023-10-19T01:09:30;13.88;;;5.38;;
15116;SDS011;7659;51.038;13.786;2023-10-19T01:12:01;11.95;;;5.80;;
15116;SDS011;7659;51.038;13.786;2023-10-19T01:14:31;10.35;;;5.38;;
15116;SDS011;7659;51.038;13.786;2023-10-19T01:16:59;12.90;;;5.65;;
15116;SDS011;7659;51.038;13.786;2023-10-19T01:19:26;10.45;;;6.05;;
15116;SDS011;7659;51.038;13.786;2023-10-19T01:21:52;11.20;;;6.25;;
15116;SDS011;7659;51.038;13.786;2023-10-19T01:24:19;8.98;;;6.03;;
15116;SDS011;7659;51.038;13.786;2023-10-19T01:26:52;9.55;;;6.47;;
15116;SDS011;7659;51.038;13.786;2023-10-19T01:29:19;13.32;;;6.78;;
15116;SDS011;7659;51.038;13.786;2023-10-19T01:31:51;12.63;;;5.88;;
15116;SDS011;7659;51.038;13.786;2023-10-19T01:34:31;12.32;;;6.10;;
15116;SDS011;7659;51.038;13.786;2023-10-19T01:36:59;11.55;;;6.45;;
15116;SDS011;7659;51.038;13.786;2023-10-19T01:39:28;9.48;;;6.15;;
15116;SDS011;7659;51.038;13.786;2023-10-19T01:41:53;11.48;;;6.57;;
15116;SDS011;7659;51.038;13.786;2023-10-19T01:44:19;15.80;;;7.00;;
15116;SDS011;7659;51.038;13.786;2023-10-19T01:46:46;12.55;;;6.15;;
15116;SDS011;7659;51.038;13.786;2023-10-19T01:49:14;10.88;;;6.47;;
15116;SDS011;7659;51.038;13.786;2023-10-19T01:51:44;11.45;;;6.90;;
15116;SDS011;7659;51.038;13.786;2023-10-19T01:54:12;16.15;;;8.13;;
15116;SDS011;7659;51.038;13.786;2023-10-19T01:56:39;12.90;;;6.32;;
15116;SDS011;7659;51.038;13.786;2023-10-19T01:59:07;12.40;;;6.80;;
15116;SDS011;7659;51.038;13.786;2023-10-19T02:01:36;9.57;;;6.47;;
15116;SDS011;7659;51.038;13.786;2023-10-19T02:04:03;12.93;;;6.72;;
15116;SDS011;7659;51.038;13.786;2023-10-19T02:06:32;11.82;;;6.93;;
15116;SDS011;7659;51.038;13.786;2023-10-19T02:09:11;11.98;;;5.95;;
15116;SDS011;7659;51.038;13.786;2023-10-19T02:11:47;16.38;;;7.38;;
15116;SDS011;7659;51.038;13.786;2023-10-19T02:14:15;10.90;;;6.32;;
15116;SDS011;7659;51.038;13.786;2023-10-19T02:16:42;12.15;;;7.65;;
15116;SDS011;7659;51.038;13.786;2023-10-19T02:19:08;10.63;;;6.57;;
15116;SDS011;7659;51.038;13.786;2023-10-19T02:21:34;11.50;;;6.95;;
15116;SDS011;7659;51.038;13.786;2023-10-19T02:24:09;12.38;;;7.30;;
15116;SDS011;7659;51.038;13.786;2023-10-19T02:26:35;9.98;;;7.22;;
15116;SDS011;7659;51.038;13.786;2023-10-19T02:29:03;13.15;;;6.85;;
15116;SDS011;7659;51.038;13.786;2023-10-19T02:31:36;15.32;;;8.07;;
15116;SDS011;7659;51.038;13.786;2023-10-19T02:34:08;11.15;;;6.88;;
15116;SDS011;7659;51.038;13.786;2023-10-19T02:36:35;12.90;;;7.43;;
15116;SDS011;7659;51.038;13.786;2023-10-19T02:39:07;14.82;;;7.22;;
15116;SDS011;7659;51.038;13.786;2023-10-19T02:41:36;17.33;;;7.88;;
15116;SDS011;7659;51.038;13.786;2023-10-19T02:44:02;14.70;;;7.65;;
15116;SDS011;7659;51.038;13.786;2023-10-19T02:46:47;14.13;;;8.18;;
15116;SDS011;7659;51.038;13.786;2023-10-19T02:49:15;15.02;;;8.60;;
15116;SDS011;7659;51.038;13.786;2023-10-19T02:51:44;17.50;;;8.23;;
15116;SDS011;7659;51.038;13.786;2023-10-19T02:54:13;14.50;;;8.95;;
15116;SDS011;7659;51.038;13.786;2023-10-19T02:56:54;10.88;;;7.43;;
15116;SDS011;7659;51.038;13.786;2023-10-19T02:59:23;14.80;;;8.30;;
15116;SDS011;7659;51.038;13.786;2023-10-19T03:01:49;13.32;;;7.18;;
15116;SDS011;7659;51.038;13.786;2023-10-19T03:04:16;13.63;;;8.52;;
15116;SDS011;7659;51.038;13.786;2023-10-19T03:06:41;13.70;;;8.93;;
15116;SDS011;7659;51.038;13.786;2023-10-19T03:09:07;17.17;;;8.55;;
15116;SDS011;7659;51.038;13.786;2023-10-19T03:11:42;17.38;;;8.52;;
15116;SDS011;7659;51.038;13.786;2023-10-19T03:14:09;14.15;;;9.00;;
15116;SDS011;7659;51.038;13.786;2023-10-19T03:16:36;13.60;;;8.63;;
15116;SDS011;7659;51.038;13.786;2023-10-19T03:19:02;15.93;;;8.57;;
15116;SDS011;7659;51.038;13.786;2023-10-19T03:21:29;14.32;;;9.07;;
15116;SDS011;7659;51.038;13.786;2023-10-19T03:23:58;20.67;;;9.40;;
15116;SDS011;7659;51.038;13.786;2023-10-19T03:26:27;13.25;;;9.60;;
15116;SDS011;7659;51.038;13.786;2023-10-19T03:28:59;16.38;;;8.10;;
15116;SDS011;7659;51.038;13.786;2023-10-19T03:31:32;15.00;;;9.38;;
15116;SDS011;7659;51.038;13.786;2023-10-19T03:33:58;14.80;;;9.23;;
15116;SDS011;7659;51.038;13.786;2023-10-19T03:36:25;13.73;;;9.60;;
15116;SDS011;7659;51.038;13.786;2023-10-19T03:38:50;14.55;;;9.30;;
15116;SDS011;7659;51.038;13.786;2023-10-19T03:41:17;18.00;;;9.38;;
15116;SDS011;7659;51.038;13.786;2023-10-19T03:43:49;17.20;;;10.13;;
15116;SDS011;7659;51.038;13.786;2023-10-19T03:46:17;17.30;;;10.13;;
15116;SDS011;7659;51.038;13.786;2023-10-19T03:49:03;15.27;;;10.30;;
15116;SDS011;7659;51.038;13.786;2023-10-19T03:51:36;18.15;;;10.80;;
15116;SDS011;7659;51.038;13.786;2023-10-19T03:54:08;16.98;;;11.48;;
15116;SDS011;7659;51.038;13.786;2023-10-19T03:56:49;18.45;;;11.63;;
15116;SDS011;7659;51.038;13.786;2023-10-19T03:59:18;19.40;;;11.80;;
15116;SDS011;7659;51.038;13.786;2023-10-19T04:01:43;19.75;;;11.98;;
15116;SDS011;7659;51.038;13.786;2023-10-19T04:04:09;16.55;;;11.95;;
15116;SDS011;7659;51.038;13.786;2023-10-19T04:06:35;17.13;;;12.00;;
15116;SDS011;7659;51.038;13.786;2023-10-19T04:09:00;18.92;;;13.00;;
15116;SDS011;7659;51.038;13.786;2023-10-19T04:11:26;19.00;;;12.50;;
15116;SDS011;7659;51.038;13.786;2023-10-19T04:13:58;17.13;;;12.30;;
15116;SDS011;7659;51.038;13.786;2023-10-19T04:16:28;23.08;;;13.98;;
15116;SDS011;7659;51.038;13.786;2023-10-19T04:18:54;23.73;;;14.70;;
15116;SDS011;7659;51.038;13.786;2023-10-19T04:21:20;20.63;;;14.35;;
15116;SDS011;7659;51.038;13.786;2023-10-19T04:23:45;19.63;;;14.18;;
15116;SDS011;7659;51.038;13.786;2023-10-19T04:26:12;20.63;;;14.65;;
15116;SDS011;7659;51.038;13.786;2023-10-19T04:28:39;25.30;;;15.73;;
15116;SDS011;7659;51.038;13.786;2023-10-19T04:31:15;22.45;;;15.13;;
15116;SDS011;7659;51.038;13.786;2023-10-19T04:33:41;26.90;;;17.20;;
15116;SDS011;7659;51.038;13.786;2023-10-19T04:36:13;28.67;;;17.58;;
15116;SDS011;7659;51.038;13.786;2023-10-19T04:38:39;24.52;;;17.17;;
15116;SDS011;7659;51.038;13.786;2023-10-19T04:41:08;24.85;;;17.98;;
15116;SDS011;7659;51.038;13.786;2023-10-19T04:43:34;29.85;;;19.30;;
15116;SDS011;7659;51.038;13.786;2023-10-19T04:46:03;31.17;;;19.38;;
15116;SDS011;7659;51.038;13.786;2023-10-19T04:48:32;28.85;;;18.27;;
15116;SDS011;7659;51.038;13.786;2023-10-19T04:50:58;30.73;;;20.50;;
15116;SDS011;7659;51.038;13.786;2023-10-19T04:53:23;33.25;;;20.90;;
15116;SDS011;7659;51.038;13.786;2023-10-19T04:55:49;31.65;;;20.48;;
15116;SDS011;7659;51.038;13.786;2023-10-19T04:58:15;31.10;;;22.02;;
15116;SDS011;7659;51.038;13.786;2023-10-19T05:00:41;29.63;;;21.95;;
15116;SDS011;7659;51.038;13.786;2023-10-19T05:03:06;33.35;;;22.27;;
15116;SDS011;7659;51.038;13.786;2023-10-19T05:05:32;32.38;;;21.63;;
15116;SDS011;7659;51.038;13.786;2023-10-19T05:07:57;35.78;;;22.52;;
15116;SDS011;7659;51.038;13.786;2023-10-19T05:10:23;35.15;;;22.23;;
15116;SDS011;7659;51.038;13.786;2023-10-19T05:12:50;35.63;;;23.83;;
15116;SDS011;7659;51.038;13.786;2023-10-19T05:15:15;28.75;;;21.63;;
15116;SDS011;7659;51.038;13.786;2023-10-19T05:17:41;32.72;;;22.80;;
15116;SDS011;7659;51.038;13.786;2023-10-19T05:20:07;33.85;;;23.02;;
15116;SDS011;7659;51.038;13.786;2023-10-19T05:22:32;32.13;;;22.48;;
15116;SDS011;7659;51.038;13.786;2023-10-19T05:24:58;28.50;;;21.63;;
15116;SDS011;7659;51.038;13.786;2023-10-19T05:27:23;31.98;;;22.50;;
15116;SDS011;7659;51.038;13.786;2023-10-19T05:29:49;30.73;;;22.63;;
15116;SDS011;7659;51.038;13.786;2023-10-19T05:32:16;30.92;;;21.60;;
15116;SDS011;7659;51.038;13.786;2023-10-19T05:34:42;30.15;;;23.27;;
15116;SDS011;7659;51.038;13.786;2023-10-19T05:37:07;29.13;;;22.35;;
15116;SDS011;7659;51.038;13.786;2023-10-19T05:39:34;32.42;;;21.42;;
15116;SDS011;7659;51.038;13.786;2023-10-19T05:41:59;31.10;;;21.85;;
15116;SDS011;7659;51.038;13.786;2023-10-19T05:44:26;34.83;;;21.88;;
15116;SDS011;7659;51.038;13.786;2023-10-19T05:46:52;30.65;;;22.02;;
15116;SDS011;7659;51.038;13.786;2023-10-19T05:49:17;31.13;;;21.48;;
15116;SDS011;7659;51.038;13.786;2023-10-19T05:51:43;30.05;;;21.15;;
15116;SDS011;7659;51.038;13.786;2023-10-19T05:54:10;31.77;;;21.48;;
15116;SDS011;7659;51.038;13.786;2023-10-19T05:56:35;31.42;;;22.95;;
15116;SDS011;7659;51.038;13.786;2023-10-19T05:59:01;27.55;;;22.17;;
15116;SDS011;7659;51.038;13.786;2023-10-19T06:01:27;27.77;;;20.90;;
15116;SDS011;7659;51.038;13.786;2023-10-19T06:03:52;28.70;;;21.95;;
15116;SDS011;7659;51.038;13.786;2023-10-19T06:06:21;31.10;;;21.30;;
15116;SDS011;7659;51.038;13.786;2023-10-19T06:08:47;32.80;;;24.30;;
15116;SDS011;7659;51.038;13.786;2023-10-19T06:11:12;29.27;;;22.63;;
15116;SDS011;7659;51.038;13.786;2023-10-19T06:13:38;30.63;;;22.70;;
15116;SDS011;7659;51.038;13.786;2023-10-19T06:16:04;30.58;;;23.13;;
15116;SDS011;7659;51.038;13.786;2023-10-19T06:18:29;33.28;;;23.95;;
15116;SDS011;7659;51.038;13.786;2023-10-19T06:20:55;35.97;;;23.92;;
15116;SDS011;7659;51.038;13.786;2023-10-19T06:23:20;34.40;;;24.30;;
15116;SDS011;7659;51.038;13.786;2023-10-19T06:25:46;35.45;;;24.35;;
15116;SDS011;7659;51.038;13.786;2023-10-19T06:28:12;31.85;;;23.58;;
15116;SDS011;7659;51.038;13.786;2023-10-19T06:30:37;32.08;;;22.85;;
15116;SDS011;7659;51.038;13.786;2023-10-19T06:33:03;32.58;;;23.25;;
15116;SDS011;7659;51.038;13.786;2023-10-19T06:35:32;30.92;;;22.33;;
15116;SDS011;7659;51.038;13.786;2023-10-19T06:37:58;33.65;;;25.25;;
15116;SDS011;7659;51.038;13.786;2023-10-19T06:40:26;38.10;;;25.15;;
15116;SDS011;7659;51.038;13.786;2023-10-19T06:42:54;34.45;;;24.20;;
15116;SDS011;7659;51.038;13.786;2023-10-19T06:45:21;36.15;;;25.65;;
15116;SDS011;7659;51.038;13.786;2023-10-19T06:47:47;35.05;;;25.58;;
15116;SDS011;7659;51.038;13.786;2023-10-19T06:50:22;37.15;;;24.90;;
15116;SDS011;7659;51.038;13.786;2023-10-19T06:52:48;35.05;;;24.70;;
15116;SDS011;7659;51.038;13.786;2023-10-19T06:55:14;35.25;;;24.42;;
15116;SDS011;7659;51.038;13.786;2023-10-19T06:57:45;32.33;;;24.55;;
15116;SDS011;7659;51.038;13.786;2023-10-19T07:00:14;34.10;;;24.40;;
15116;SDS011;7659;51.038;13.786;2023-10-19T07:02:43;39.08;;;24.98;;
15116;SDS011;7659;51.038;13.786;2023-10-19T07:05:10;30.80;;;24.08;;
15116;SDS011;7659;51.038;13.786;2023-10-19T07:07:36;32.17;;;24.35;;
15116;SDS011;7659;51.038;13.786;2023-10-19T07:10:02;35.05;;;24.75;;
15116;SDS011;7659;51.038;13.786;2023-10-19T07:12:28;38.17;;;24.25;;
15116;SDS011;7659;51.038;13.786;2023-10-19T07:14:54;32.50;;;23.92;;
15116;SDS011;7659;51.038;13.786;2023-10-19T07:17:19;34.72;;;26.20;;
15116;SDS011;7659;51.038;13.786;2023-10-19T07:19:45;37.80;;;26.60;;
15116;SDS011;7659;51.038;13.786;2023-10-19T07:22:14;34.03;;;26.73;;
15116;SDS011;7659;51.038;13.786;2023-10-19T07:24:40;33.22;;;25.73;;
15116;SDS011;7659;51.038;13.786;2023-10-19T07:27:06;34.50;;;24.58;;
15116;SDS011;7659;51.038;13.786;2023-10-19T07:29:33;35.83;;;24.90;;
15116;SDS011;7659;51.038;13.786;2023-10-19T07:32:01;35.33;;;24.98;;
15116;SDS011;7659;51.038;13.786;2023-10-19T07:34:27;38.28;;;25.75;;
15116;SDS011;7659;51.038;13.786;2023-10-19T07:36:56;38.83;;;24.75;;
15116;SDS011;7659;51.038;13.786;2023-10-19T07:39:24;37.25;;;25.67;;
15116;SDS011;7659;51.038;13.786;2023-10-19T07:41:50;33.85;;;24.70;;
15116;SDS011;7659;51.038;13.786;2023-10-19T07:44:16;33.30;;;25.05;;
15116;SDS011;7659;51.038;13.786;2023-10-19T07:46:41;34.50;;;24.52;;
15116;SDS011;7659;51.038;13.786;2023-10-19T07:49:07;36.35;;;24.67;;
15116;SDS011;7659;51.038;13.786;2023-10-19T07:51:33;32.45;;;23.85;;
15116;SDS011;7659;51.038;13.786;2023-10-19T07:53:59;36.67;;;23.75;;
15116;SDS011;7659;51.038;13.786;2023-10-19T07:56:25;33.65;;;23.42;;
15116;SDS011;7659;51.038;13.786;2023-10-19T07:58:50;32.10;;;23.67;;
15116;SDS011;7659;51.038;13.786;2023-10-19T08:01:15;36.90;;;25.75;;
15116;SDS011;7659;51.038;13.786;2023-10-19T08:03:41;33.75;;;23.35;;
15116;SDS011;7659;51.038;13.786;2023-10-19T08:06:06;30.50;;;22.33;;
15116;SDS011;7659;51.038;13.786;2023-10-19T08:08:32;37.90;;;25.80;;
15116;SDS011;7659;51.038;13.786;2023-10-19T08:11:00;29.50;;;23.55;;
15116;SDS011;7659;51.038;13.786;2023-10-19T08:13:26;32.00;;;24.40;;
15116;SDS011;7659;51.038;13.786;2023-10-19T08:15:52;32.72;;;25.65;;
15116;SDS011;7659;51.038;13.786;2023-10-19T08:18:17;35.03;;;24.50;;
15116;SDS011;7659;51.038;13.786;2023-10-19T08:20:43;32.13;;;24.10;;
15116;SDS011;7659;51.038;13.786;2023-10-19T08:23:12;36.83;;;24.25;;
15116;SDS011;7659;51.038;13.786;2023-10-19T08:25:39;34.10;;;24.70;;
15116;SDS011;7659;51.038;13.786;2023-10-19T08:28:04;35.30;;;25.02;;
15116;SDS011;7659;51.038;13.786;2023-10-19T08:30:31;29.52;;;22.95;;
15116;SDS011;7659;51.038;13.786;2023-10-19T08:32:58;28.27;;;22.23;;
15116;SDS011;7659;51.038;13.786;2023-10-19T08:35:24;28.90;;;22.02;;
15116;SDS011;7659;51.038;13.786;2023-10-19T08:37:54;29.90;;;22.90;;
15116;SDS011;7659;51.038;13.786;2023-10-19T08:40:19;29.85;;;23.23;;
15116;SDS011;7659;51.038;13.786;2023-10-19T08:42:45;28.10;;;21.95;;
15116;SDS011;7659;51.038;13.786;2023-10-19T08:45:11;29.90;;;23.40;;
15116;SDS011;7659;51.038;13.786;2023-10-19T08:47:48;28.83;;;22.10;;
15116;SDS011;7659;51.038;13.786;2023-10-19T08:50:14;28.95;;;20.60;;
15116;SDS011;7659;51.038;13.786;2023-10-19T08:52:41;28.13;;;22.00;;
15116;SDS011;7659;51.038;13.786;2023-10-19T08:55:08;27.33;;;20.65;;
15116;SDS011;7659;51.038;13.786;2023-10-19T08:57:36;26.10;;;19.95;;
15116;SDS011;7659;51.038;13.786;2023-10-19T09:00:01;28.27;;;20.48;;
15116;SDS011;7659;51.038;13.786;2023-10-19T09:02:28;23.83;;;19.15;;
15116;SDS011;7659;51.038;13.786;2023-10-19T09:04:53;24.70;;;19.55;;
15116;SDS011;7659;51.038;13.786;2023-10-19T09:07:23;28.05;;;19.50;;
15116;SDS011;7659;51.038;13.786;2023-10-19T09:09:49;24.55;;;19.27;;
15116;SDS011;7659;51.038;13.786;2023-10-19T09:12:14;24.10;;;18.40;;
15116;SDS011;7659;51.038;13.786;2023-10-19T09:14:40;24.45;;;17.50;;
15116;SDS011;7659;51.038;13.786;2023-10-19T09:17:06;23.20;;;17.98;;
15116;SDS011;7659;51.038;13.786;2023-10-19T09:19:42;22.98;;;17.83;;
15116;SDS011;7659;51.038;13.786;2023-10-19T09:22:08;22.15;;;17.77;;
15116;SDS011;7659;51.038;13.786;2023-10-19T09:24:42;21.42;;;16.85;;
15116;SDS011;7659;51.038;13.786;2023-10-19T09:27:08;21.95;;;16.42;;
15116;SDS011;7659;51.038;13.786;2023-10-19T09:29:33;19.08;;;15.00;;
15116;SDS011;7659;51.038;13.786;2023-10-19T09:31:59;21.25;;;15.45;;
15116;SDS011;7659;51.038;13.786;2023-10-19T09:34:32;19.75;;;15.02;;
15116;SDS011;7659;51.038;13.786;2023-10-19T09:37:01;16.73;;;13.90;;
15116;SDS011;7659;51.038;13.786;2023-10-19T09:39:28;21.52;;;14.40;;
15116;SDS011;7659;51.038;13.786;2023-10-19T09:42:06;16.52;;;14.13;;
15116;SDS011;7659;51.038;13.786;2023-10-19T09:44:42;17.15;;;13.45;;
15116;SDS011;7659;51.038;13.786;2023-10-19T09:47:11;16.88;;;13.77;;
15116;SDS011;7659;51.038;13.786;2023-10-19T09:49:38;17.95;;;13.38;;
15116;SDS011;7659;51.038;13.786;2023-10-19T09:52:05;14.98;;;12.80;;
15116;SDS011;7659;51.038;13.786;2023-10-19T09:54:35;19.77;;;13.95;;
15116;SDS011;7659;51.038;13.786;2023-10-19T09:57:08;15.77;;;14.07;;
15116;SDS011;7659;51.038;13.786;2023-10-19T09:59:38;16.33;;;13.82;;
15116;SDS011;7659;51.038;13.786;2023-10-19T10:02:23;17.23;;;14.18;;
15116;SDS011;7659;51.038;13.786;2023-10-19T10:04:49;18.97;;;14.80;;
15116;SDS011;7659;51.038;13.786;2023-10-19T10:07:15;17.30;;;14.15;;
15116;SDS011;7659;51.038;13.786;2023-10-19T10:09:41;17.25;;;14.13;;
15116;SDS011;7659;51.038;13.786;2023-10-19T10:14:52;18.75;;;14.98;;
15116;SDS011;7659;51.038;13.786;2023-10-19T10:17:18;19.83;;;14.70;;
15116;SDS011;7659;51.038;13.786;2023-10-19T10:19:48;17.70;;;15.27;;
15116;SDS011;7659;51.038;13.786;2023-10-19T10:22:13;20.15;;;16.35;;
15116;SDS011;7659;51.038;13.786;2023-10-19T10:24:46;19.92;;;15.75;;
15116;SDS011;7659;51.038;13.786;2023-10-19T10:27:11;18.55;;;15.18;;
15116;SDS011;7659;51.038;13.786;2023-10-19T10:29:58;19.77;;;15.98;;
15116;SDS011;7659;51.038;13.786;2023-10-19T10:34:49;20.98;;;15.57;;
15116;SDS011;7659;51.038;13.786;2023-10-19T10:37:15;22.42;;;16.63;;
15116;SDS011;7659;51.038;13.786;2023-10-19T10:39:41;23.60;;;17.00;;
15116;SDS011;7659;51.038;13.786;2023-10-19T10:42:07;21.00;;;16.83;;
15116;SDS011;7659;51.038;13.786;2023-10-19T10:44:46;25.80;;;17.30;;
15116;SDS011;7659;51.038;13.786;2023-10-19T10:47:16;21.70;;;17.25;;
15116;SDS011;7659;51.038;13.786;2023-10-19T10:52:27;25.13;;;18.42;;
15116;SDS011;7659;51.038;13.786;2023-10-19T10:54:54;23.27;;;17.98;;
15116;SDS011;7659;51.038;13.786;2023-10-19T10:57:20;24.90;;;19.42;;
15116;SDS011;7659;51.038;13.786;2023-10-19T10:59:46;28.52;;;20.38;;
15116;SDS011;7659;51.038;13.786;2023-10-19T11:02:18;22.15;;;18.88;;
15116;SDS011;7659;51.038;13.786;2023-10-19T11:04:44;24.52;;;19.83;;
15116;SDS011;7659;51.038;13.786;2023-10-19T11:07:17;22.60;;;18.67;;
15116;SDS011;7659;51.038;13.786;2023-10-19T11:09:44;24.93;;;19.87;;
15116;SDS011;7659;51.038;13.786;2023-10-19T11:12:12;24.75;;;19.23;;
15116;SDS011;7659;51.038;13.786;2023-10-19T11:14:57;23.02;;;18.60;;
15116;SDS011;7659;51.038;13.786;2023-10-19T11:17:26;22.92;;;18.73;;
15116;SDS011;7659;51.038;13.786;2023-10-19T11:19:57;26.08;;;20.55;;
15116;SDS011;7659;51.038;13.786;2023-10-19T11:22:23;25.60;;;19.67;;
15116;SDS011;7659;51.038;13.786;2023-10-19T11:24:52;24.88;;;19.75;;
15116;SDS011;7659;51.038;13.786;2023-10-19T11:27:22;23.92;;;19.55;;
15116;SDS011;7659;51.038;13.786;2023-10-19T11:29:58;25.90;;;20.90;;
15116;SDS011;7659;51.038;13.786;2023-10-19T11:32:24;23.02;;;19.45;;
15116;SDS011;7659;51.038;13.786;2023-10-19T11:34:55;25.27;;;19.85;;
15116;SDS011;7659;51.038;13.786;2023-10-19T11:37:21;24.45;;;19.42;;
15116;SDS011;7659;51.038;13.786;2023-10-19T11:39:47;27.90;;;20.95;;
15116;SDS011;7659;51.038;13.786;2023-10-19T11:42:15;24.90;;;20.83;;
15116;SDS011;7659;51.038;13.786;2023-10-19T11:44:40;27.00;;;21.38;;
15116;SDS011;7659;51.038;13.786;2023-10-19T11:47:06;24.88;;;20.98;;
15116;SDS011;7659;51.038;13.786;2023-10-19T11:49:31;30.42;;;21.63;;
15116;SDS011;7659;51.038;13.786;2023-10-19T11:51:57;24.40;;;20.55;;
15116;SDS011;7659;51.038;13.786;2023-10-19T11:54:23;27.63;;;20.85;;
15116;SDS011;7659;51.038;13.786;2023-10-19T11:56:49;25.55;;;20.23;;
15116;SDS011;7659;51.038;13.786;2023-10-19T11:59:14;25.40;;;20.73;;
15116;SDS011;7659;51.038;13.786;2023-10-19T12:01:40;29.60;;;22.75;;
15116;SDS011;7659;51.038;13.786;2023-10-19T12:04:06;27.55;;;20.17;;
15116;SDS011;7659;51.038;13.786;2023-10-19T12:06:31;27.25;;;21.13;;
15116;SDS011;7659;51.038;13.786;2023-10-19T12:08:57;28.25;;;22.67;;
15116;SDS011;7659;51.038;13.786;2023-10-19T12:11:24;28.17;;;20.60;;
15116;SDS011;7659;51.038;13.786;2023-10-19T12:13:50;26.45;;;21.70;;
15116;SDS011;7659;51.038;13.786;2023-10-19T12:16:16;30.73;;;22.50;;
15116;SDS011;7659;51.038;13.786;2023-10-19T12:18:41;28.80;;;22.73;;
15116;SDS011;7659;51.038;13.786;2023-10-19T12:21:07;29.23;;;22.50;;
15116;SDS011;7659;51.038;13.786;2023-10-19T12:23:38;30.05;;;22.63;;
15116;SDS011;7659;51.038;13.786;2023-10-19T12:26:04;29.83;;;22.80;;
15116;SDS011;7659;51.038;13.786;2023-10-19T12:28:37;29.17;;;23.30;;
15116;SDS011;7659;51.038;13.786;2023-10-19T12:31:03;28.45;;;21.63;;
15116;SDS011;7659;51.038;13.786;2023-10-19T12:33:30;29.98;;;22.02;;
15116;SDS011;7659;51.038;13.786;2023-10-19T12:35:56;30.83;;;22.92;;
15116;SDS011;7659;51.038;13.786;2023-10-19T12:38:24;26.58;;;21.38;;
15116;SDS011;7659;51.038;13.786;2023-10-19T12:40:50;26.52;;;21.27;;
15116;SDS011;7659;51.038;13.786;2023-10-19T12:43:16;24.42;;;20.70;;
15116;SDS011;7659;51.038;13.786;2023-10-19T12:45:44;28.35;;;22.15;;
15116;SDS011;7659;51.038;13.786;2023-10-19T12:48:13;27.35;;;23.50;;
15116;SDS011;7659;51.038;13.786;2023-10-19T12:50:38;26.23;;;21.85;;
15116;SDS011;7659;51.038;13.786;2023-10-19T12:53:06;25.80;;;20.90;;
15116;SDS011;7659;51.038;13.786;2023-10-19T12:55:31;28.45;;;22.70;;
15116;SDS011;7659;51.038;13.786;2023-10-19T12:57:57;28.33;;;22.35;;
15116;SDS011;7659;51.038;13.786;2023-10-19T13:00:24;29.20;;;23.85;;
15116;SDS011;7659;51.038;13.786;2023-10-19T13:02:55;28.23;;;23.23;;
15116;SDS011;7659;51.038;13.786;2023-10-19T13:05:35;29.38;;;23.45;;
15116;SDS011;7659;51.038;13.786;2023-10-19T13:08:02;28.58;;;23.40;;
15116;SDS011;7659;51.038;13.786;2023-10-19T13:10:28;28.00;;;23.45;;
15116;SDS011;7659;51.038;13.786;2023-10-19T13:12:58;29.27;;;24.58;;
15116;SDS011;7659;51.038;13.786;2023-10-19T13:15:24;28.52;;;22.00;;
15116;SDS011;7659;51.038;13.786;2023-10-19T13:17:53;28.67;;;23.10;;
15116;SDS011;7659;51.038;13.786;2023-10-19T13:20:19;29.50;;;22.35;;
15116;SDS011;7659;51.038;13.786;2023-10-19T13:22:44;25.27;;;21.33;;
15116;SDS011;7659;51.038;13.786;2023-10-19T13:25:11;23.77;;;19.92;;
15116;SDS011;7659;51.038;13.786;2023-10-19T13:27:38;24.75;;;20.00;;
15116;SDS011;7659;51.038;13.786;2023-10-19T13:30:07;24.40;;;20.60;;
15116;SDS011;7659;51.038;13.786;2023-10-19T13:32:36;25.95;;;19.98;;
15116;SDS011;7659;51.038;13.786;2023-10-19T13:35:01;24.75;;;20.08;;
15116;SDS011;7659;51.038;13.786;2023-10-19T13:37:27;26.52;;;21.10;;
15116;SDS011;7659;51.038;13.786;2023-10-19T13:39:53;25.67;;;20.30;;
15116;SDS011;7659;51.038;13.786;2023-10-19T13:42:20;21.75;;;19.25;;
15116;SDS011;7659;51.038;13.786;2023-10-19T13:45:04;22.77;;;19.30;;
15116;SDS011;7659;51.038;13.786;2023-10-19T13:47:30;24.17;;;20.38;;
15116;SDS011;7659;51.038;13.786;2023-10-19T13:49:58;24.40;;;20.25;;
15116;SDS011;7659;51.038;13.786;2023-10-19T13:52:24;22.25;;;19.30;;
15116;SDS011;7659;51.038;13.786;2023-10-19T13:54:50;24.63;;;20.10;;
15116;SDS011;7659;51.038;13.786;2023-10-19T13:57:16;25.88;;;21.45;;
15116;SDS011;7659;51.038;13.786;2023-10-19T13:59:41;27.70;;;22.50;;
15116;SDS011;7659;51.038;13.786;2023-10-19T14:02:07;27.00;;;21.25;;
15116;SDS011;7659;51.038;13.786;2023-10-19T14:04:33;27.63;;;22.05;;
15116;SDS011;7659;51.038;13.786;2023-10-19T14:06:58;25.38;;;22.52;;
15116;SDS011;7659;51.038;13.786;2023-10-19T14:09:25;27.10;;;22.30;;
15116;SDS011;7659;51.038;13.786;2023-10-19T14:11:51;27.05;;;22.67;;
15116;SDS011;7659;51.038;13.786;2023-10-19T14:14:17;29.75;;;23.30;;
15116;SDS011;7659;51.038;13.786;2023-10-19T14:16:42;31.05;;;23.65;;
15116;SDS011;7659;51.038;13.786;2023-10-19T14:19:09;27.50;;;23.10;;
15116;SDS011;7659;51.038;13.786;2023-10-19T14:21:35;29.15;;;23.90;;
15116;SDS011;7659;51.038;13.786;2023-10-19T14:24:03;28.98;;;24.00;;
15116;SDS011;7659;51.038;13.786;2023-10-19T14:26:28;31.23;;;25.55;;
15116;SDS011;7659;51.038;13.786;2023-10-19T14:28:54;32.60;;;24.48;;
15116;SDS011;7659;51.038;13.786;2023-10-19T14:31:19;30.75;;;23.60;;
15116;SDS011;7659;51.038;13.786;2023-10-19T14:33:46;34.28;;;24.75;;
15116;SDS011;7659;51.038;13.786;2023-10-19T14:36:12;29.58;;;24.02;;
15116;SDS011;7659;51.038;13.786;2023-10-19T14:38:37;28.73;;;24.48;;